sensor_id;sensor_type;location;lat;lon;timestamp;P1;durP1;ratioP1;P2;durP2;ratioP2
41693;SDS011;27377;50.666;9.150;2022-10-16T00:01:55;6.73;;;4.10;;
41693;SDS011;27377;50.666;9.150;2022-10-16T00:04:21;5.47;;;3.90;;
41693;SDS011;27377;50.666;9.150;2022-10-16T00:06:46;6.20;;;3.97;;
41693;SDS011;27377;50.666;9.150;2022-10-16T00:09:12;7.23;;;4.00;;
41693;SDS011;27377;50.666;9.150;2022-10-16T00:11:38;4.83;;;3.70;;
41693;SDS011;27377;50.666;9.150;2022-10-16T00:14:06;4.70;;;3.50;;
41693;SDS011;27377;50.666;9.150;2022-10-16T00:16:35;5.13;;;3.85;;
41693;SDS011;27377;50.666;9.150;2022-10-16T00:19:01;4.28;;;3.40;;
41693;SDS011;27377;50.666;9.150;2022-10-16T00:21:27;6.70;;;3.40;;
41693;SDS011;27377;50.666;9.150;2022-10-16T00:24:01;5.47;;;3.40;;
41693;SDS011;27377;50.666;9.150;2022-10-16T00:26:31;5.43;;;3.10;;
41693;SDS011;27377;50.666;9.150;2022-10-16T00:28:58;4.47;;;3.08;;
41693;SDS011;27377;50.666;9.150;2022-10-16T00:31:23;4.77;;;3.00;;
41693;SDS011;27377;50.666;9.150;2022-10-16T00:33:49;5.83;;;2.70;;
41693;SDS011;27377;50.666;9.150;2022-10-16T00:36:17;4.53;;;2.65;;
41693;SDS011;27377;50.666;9.150;2022-10-16T00:38:45;5.20;;;2.60;;
41693;SDS011;27377;50.666;9.150;2022-10-16T00:41:11;4.43;;;2.50;;
41693;SDS011;27377;50.666;9.150;2022-10-16T00:43:46;4.50;;;2.30;;
41693;SDS011;27377;50.666;9.150;2022-10-16T00:48:49;5.13;;;2.00;;
41693;SDS011;27377;50.666;9.150;2022-10-16T00:51:23;3.28;;;1.98;;
41693;SDS011;27377;50.666;9.150;2022-10-16T00:53:53;3.30;;;1.80;;
41693;SDS011;27377;50.666;9.150;2022-10-16T00:56:20;3.17;;;1.88;;
41693;SDS011;27377;50.666;9.150;2022-10-16T00:58:45;3.23;;;1.80;;
41693;SDS011;27377;50.666;9.150;2022-10-16T01:01:11;2.97;;;1.80;;
41693;SDS011;27377;50.666;9.150;2022-10-16T01:03:37;4.40;;;1.80;;
41693;SDS011;27377;50.666;9.150;2022-10-16T01:08:47;4.55;;;1.75;;
41693;SDS011;27377;50.666;9.150;2022-10-16T01:11:22;4.97;;;1.70;;
41693;SDS011;27377;50.666;9.150;2022-10-16T01:14:21;4.22;;;1.85;;
41693;SDS011;27377;50.666;9.150;2022-10-16T01:17:01;6.55;;;1.95;;
41693;SDS011;27377;50.666;9.150;2022-10-16T01:20:14;3.40;;;2.00;;
41693;SDS011;27377;50.666;9.150;2022-10-16T01:22:33;4.47;;;2.15;;
41693;SDS011;27377;50.666;9.150;2022-10-16T01:25:05;3.80;;;2.20;;
41693;SDS011;27377;50.666;9.150;2022-10-16T01:27:36;3.70;;;2.13;;
41693;SDS011;27377;50.666;9.150;2022-10-16T01:30:07;5.45;;;2.55;;
41693;SDS011;27377;50.666;9.150;2022-10-16T01:32:46;4.13;;;2.42;;
41693;SDS011;27377;50.666;9.150;2022-10-16T01:35:32;4.70;;;2.20;;
41693;SDS011;27377;50.666;9.150;2022-10-16T01:41:15;4.93;;;2.55;;
41693;SDS011;27377;50.666;9.150;2022-10-16T01:43:47;4.78;;;2.80;;
41693;SDS011;27377;50.666;9.150;2022-10-16T01:46:17;8.55;;;3.10;;
41693;SDS011;27377;50.666;9.150;2022-10-16T01:48:45;4.65;;;3.10;;
41693;SDS011;27377;50.666;9.150;2022-10-16T01:51:12;5.13;;;3.10;;
41693;SDS011;27377;50.666;9.150;2022-10-16T01:53:39;5.53;;;3.20;;
41693;SDS011;27377;50.666;9.150;2022-10-16T01:56:09;5.10;;;3.28;;
41693;SDS011;27377;50.666;9.150;2022-10-16T01:58:40;5.18;;;2.97;;
41693;SDS011;27377;50.666;9.150;2022-10-16T02:01:09;7.88;;;3.47;;
41693;SDS011;27377;50.666;9.150;2022-10-16T02:03:38;5.53;;;3.58;;
41693;SDS011;27377;50.666;9.150;2022-10-16T02:06:07;5.75;;;3.65;;
41693;SDS011;27377;50.666;9.150;2022-10-16T02:08:33;6.90;;;3.80;;
41693;SDS011;27377;50.666;9.150;2022-10-16T02:10:59;5.18;;;4.35;;
41693;SDS011;27377;50.666;9.150;2022-10-16T02:13:27;8.05;;;4.88;;
41693;SDS011;27377;50.666;9.150;2022-10-16T02:16:03;6.53;;;5.00;;
41693;SDS011;27377;50.666;9.150;2022-10-16T02:18:29;6.22;;;5.50;;
41693;SDS011;27377;50.666;9.150;2022-10-16T02:21:15;6.97;;;5.32;;
41693;SDS011;27377;50.666;9.150;2022-10-16T02:24:08;7.20;;;5.40;;
41693;SDS011;27377;50.666;9.150;2022-10-16T02:26:44;6.90;;;5.40;;
41693;SDS011;27377;50.666;9.150;2022-10-16T02:29:11;7.70;;;5.40;;
41693;SDS011;27377;50.666;9.150;2022-10-16T02:31:41;6.07;;;5.05;;
41693;SDS011;27377;50.666;9.150;2022-10-16T02:34:10;8.10;;;5.40;;
41693;SDS011;27377;50.666;9.150;2022-10-16T02:36:37;9.23;;;5.80;;
41693;SDS011;27377;50.666;9.150;2022-10-16T02:39:04;7.95;;;5.55;;
41693;SDS011;27377;50.666;9.150;2022-10-16T02:41:30;7.50;;;5.67;;
41693;SDS011;27377;50.666;9.150;2022-10-16T02:43:56;6.82;;;5.68;;
41693;SDS011;27377;50.666;9.150;2022-10-16T02:46:22;8.20;;;6.00;;
41693;SDS011;27377;50.666;9.150;2022-10-16T02:48:47;7.28;;;5.80;;
41693;SDS011;27377;50.666;9.150;2022-10-16T02:51:13;8.57;;;5.80;;
41693;SDS011;27377;50.666;9.150;2022-10-16T02:53:38;7.75;;;5.88;;
41693;SDS011;27377;50.666;9.150;2022-10-16T02:56:04;7.45;;;6.03;;
41693;SDS011;27377;50.666;9.150;2022-10-16T02:58:30;7.70;;;6.20;;
41693;SDS011;27377;50.666;9.150;2022-10-16T03:00:55;6.70;;;6.00;;
41693;SDS011;27377;50.666;9.150;2022-10-16T03:03:22;7.60;;;5.83;;
41693;SDS011;27377;50.666;9.150;2022-10-16T03:05:47;7.57;;;6.20;;
41693;SDS011;27377;50.666;9.150;2022-10-16T03:08:13;8.27;;;6.30;;
41693;SDS011;27377;50.666;9.150;2022-10-16T03:10:39;7.95;;;6.13;;
41693;SDS011;27377;50.666;9.150;2022-10-16T03:13:04;7.32;;;6.32;;
41693;SDS011;27377;50.666;9.150;2022-10-16T03:15:30;7.43;;;6.63;;
41693;SDS011;27377;50.666;9.150;2022-10-16T03:17:59;8.82;;;7.22;;
41693;SDS011;27377;50.666;9.150;2022-10-16T03:20:25;9.93;;;7.22;;
41693;SDS011;27377;50.666;9.150;2022-10-16T03:22:51;9.85;;;7.18;;
41693;SDS011;27377;50.666;9.150;2022-10-16T03:25:17;8.23;;;7.43;;
41693;SDS011;27377;50.666;9.150;2022-10-16T03:27:42;9.00;;;7.60;;
41693;SDS011;27377;50.666;9.150;2022-10-16T03:30:08;9.33;;;7.80;;
41693;SDS011;27377;50.666;9.150;2022-10-16T03:32:34;8.80;;;7.90;;
41693;SDS011;27377;50.666;9.150;2022-10-16T03:35:00;9.27;;;8.32;;
41693;SDS011;27377;50.666;9.150;2022-10-16T03:37:25;9.02;;;7.88;;
41693;SDS011;27377;50.666;9.150;2022-10-16T03:39:51;10.38;;;7.88;;
41693;SDS011;27377;50.666;9.150;2022-10-16T03:42:17;8.88;;;7.43;;
41693;SDS011;27377;50.666;9.150;2022-10-16T03:44:42;9.10;;;7.45;;
41693;SDS011;27377;50.666;9.150;2022-10-16T03:47:08;10.35;;;7.72;;
41693;SDS011;27377;50.666;9.150;2022-10-16T03:49:33;9.27;;;7.68;;
41693;SDS011;27377;50.666;9.150;2022-10-16T03:51:59;9.40;;;7.60;;
41693;SDS011;27377;50.666;9.150;2022-10-16T03:54:25;9.23;;;7.53;;
41693;SDS011;27377;50.666;9.150;2022-10-16T03:56:50;7.53;;;6.73;;
41693;SDS011;27377;50.666;9.150;2022-10-16T03:59:16;8.00;;;6.60;;
41693;SDS011;27377;50.666;9.150;2022-10-16T04:01:41;8.33;;;6.43;;
41693;SDS011;27377;50.666;9.150;2022-10-16T04:04:07;7.13;;;6.43;;
41693;SDS011;27377;50.666;9.150;2022-10-16T04:06:32;8.00;;;6.30;;
41693;SDS011;27377;50.666;9.150;2022-10-16T04:08:58;10.13;;;5.90;;
41693;SDS011;27377;50.666;9.150;2022-10-16T04:11:23;8.13;;;5.90;;
41693;SDS011;27377;50.666;9.150;2022-10-16T04:13:49;6.55;;;5.50;;
41693;SDS011;27377;50.666;9.150;2022-10-16T04:16:14;6.10;;;4.90;;
41693;SDS011;27377;50.666;9.150;2022-10-16T04:18:40;6.03;;;4.95;;
41693;SDS011;27377;50.666;9.150;2022-10-16T04:21:06;6.30;;;4.93;;
41693;SDS011;27377;50.666;9.150;2022-10-16T04:23:32;7.18;;;4.63;;
41693;SDS011;27377;50.666;9.150;2022-10-16T04:25:58;5.97;;;4.50;;
41693;SDS011;27377;50.666;9.150;2022-10-16T04:28:24;5.97;;;4.00;;
41693;SDS011;27377;50.666;9.150;2022-10-16T04:30:50;4.13;;;2.63;;
41693;SDS011;27377;50.666;9.150;2022-10-16T04:33:15;3.43;;;2.20;;
41693;SDS011;27377;50.666;9.150;2022-10-16T04:35:41;2.50;;;1.50;;
41693;SDS011;27377;50.666;9.150;2022-10-16T04:38:06;2.00;;;1.23;;
41693;SDS011;27377;50.666;9.150;2022-10-16T04:40:32;1.90;;;1.03;;
41693;SDS011;27377;50.666;9.150;2022-10-16T04:42:58;3.10;;;1.10;;
41693;SDS011;27377;50.666;9.150;2022-10-16T04:45:24;1.73;;;1.30;;
41693;SDS011;27377;50.666;9.150;2022-10-16T04:47:50;2.60;;;1.35;;
41693;SDS011;27377;50.666;9.150;2022-10-16T04:50:15;3.00;;;1.50;;
41693;SDS011;27377;50.666;9.150;2022-10-16T04:52:41;3.20;;;1.50;;
41693;SDS011;27377;50.666;9.150;2022-10-16T04:55:07;2.77;;;1.50;;
41693;SDS011;27377;50.666;9.150;2022-10-16T04:57:33;3.93;;;1.60;;
41693;SDS011;27377;50.666;9.150;2022-10-16T04:59:58;4.00;;;1.53;;
41693;SDS011;27377;50.666;9.150;2022-10-16T05:02:24;3.33;;;1.30;;
41693;SDS011;27377;50.666;9.150;2022-10-16T05:04:50;1.80;;;1.13;;
41693;SDS011;27377;50.666;9.150;2022-10-16T05:07:16;4.18;;;1.17;;
41693;SDS011;27377;50.666;9.150;2022-10-16T05:09:42;2.10;;;1.17;;
41693;SDS011;27377;50.666;9.150;2022-10-16T05:12:07;3.07;;;0.97;;
41693;SDS011;27377;50.666;9.150;2022-10-16T05:14:33;4.80;;;1.10;;
41693;SDS011;27377;50.666;9.150;2022-10-16T05:16:59;2.57;;;1.20;;
41693;SDS011;27377;50.666;9.150;2022-10-16T05:19:25;3.15;;;1.20;;
41693;SDS011;27377;50.666;9.150;2022-10-16T05:21:51;4.03;;;0.90;;
41693;SDS011;27377;50.666;9.150;2022-10-16T05:24:16;3.00;;;1.00;;
41693;SDS011;27377;50.666;9.150;2022-10-16T05:26:42;1.60;;;1.00;;
41693;SDS011;27377;50.666;9.150;2022-10-16T05:29:07;1.57;;;0.93;;
41693;SDS011;27377;50.666;9.150;2022-10-16T05:31:34;2.38;;;1.00;;
41693;SDS011;27377;50.666;9.150;2022-10-16T05:33:59;2.45;;;1.00;;
41693;SDS011;27377;50.666;9.150;2022-10-16T05:36:25;3.20;;;0.90;;
41693;SDS011;27377;50.666;9.150;2022-10-16T05:38:51;1.80;;;1.00;;
41693;SDS011;27377;50.666;9.150;2022-10-16T05:41:17;2.77;;;0.90;;
41693;SDS011;27377;50.666;9.150;2022-10-16T05:43:46;4.75;;;0.93;;
41693;SDS011;27377;50.666;9.150;2022-10-16T05:46:12;2.60;;;0.82;;
41693;SDS011;27377;50.666;9.150;2022-10-16T05:48:38;2.13;;;0.80;;
41693;SDS011;27377;50.666;9.150;2022-10-16T05:51:05;3.13;;;0.90;;
41693;SDS011;27377;50.666;9.150;2022-10-16T05:53:33;2.75;;;0.85;;
41693;SDS011;27377;50.666;9.150;2022-10-16T05:55:59;2.33;;;0.80;;
41693;SDS011;27377;50.666;9.150;2022-10-16T05:58:28;3.33;;;0.95;;
41693;SDS011;27377;50.666;9.150;2022-10-16T06:00:59;1.90;;;1.00;;
41693;SDS011;27377;50.666;9.150;2022-10-16T06:03:29;3.10;;;1.10;;
41693;SDS011;27377;50.666;9.150;2022-10-16T06:05:55;2.90;;;1.07;;
41693;SDS011;27377;50.666;9.150;2022-10-16T06:08:21;1.73;;;1.03;;
41693;SDS011;27377;50.666;9.150;2022-10-16T06:10:48;2.55;;;1.10;;
41693;SDS011;27377;50.666;9.150;2022-10-16T06:13:24;2.72;;;1.20;;
41693;SDS011;27377;50.666;9.150;2022-10-16T06:15:50;2.42;;;1.10;;
41693;SDS011;27377;50.666;9.150;2022-10-16T06:18:15;2.10;;;1.15;;
41693;SDS011;27377;50.666;9.150;2022-10-16T06:20:41;1.42;;;1.00;;
41693;SDS011;27377;50.666;9.150;2022-10-16T06:23:07;2.00;;;1.00;;
41693;SDS011;27377;50.666;9.150;2022-10-16T06:25:32;3.70;;;0.80;;
41693;SDS011;27377;50.666;9.150;2022-10-16T06:27:58;2.65;;;0.90;;
41693;SDS011;27377;50.666;9.150;2022-10-16T06:30:24;4.72;;;0.90;;
41693;SDS011;27377;50.666;9.150;2022-10-16T06:32:49;1.70;;;0.90;;
41693;SDS011;27377;50.666;9.150;2022-10-16T06:35:15;3.03;;;0.70;;
41693;SDS011;27377;50.666;9.150;2022-10-16T06:37:41;2.77;;;1.00;;
41693;SDS011;27377;50.666;9.150;2022-10-16T06:40:06;3.80;;;1.30;;
41693;SDS011;27377;50.666;9.150;2022-10-16T06:42:32;2.50;;;1.30;;
41693;SDS011;27377;50.666;9.150;2022-10-16T06:44:58;2.70;;;1.50;;
41693;SDS011;27377;50.666;9.150;2022-10-16T06:47:23;2.27;;;1.40;;
41693;SDS011;27377;50.666;9.150;2022-10-16T06:49:49;4.28;;;1.50;;
41693;SDS011;27377;50.666;9.150;2022-10-16T06:52:15;3.78;;;1.60;;
41693;SDS011;27377;50.666;9.150;2022-10-16T06:54:40;2.13;;;1.40;;
41693;SDS011;27377;50.666;9.150;2022-10-16T06:57:06;2.83;;;1.43;;
41693;SDS011;27377;50.666;9.150;2022-10-16T06:59:31;2.73;;;1.50;;
41693;SDS011;27377;50.666;9.150;2022-10-16T07:01:57;2.40;;;1.50;;
41693;SDS011;27377;50.666;9.150;2022-10-16T07:04:23;1.97;;;1.20;;
41693;SDS011;27377;50.666;9.150;2022-10-16T07:06:48;2.00;;;1.20;;
41693;SDS011;27377;50.666;9.150;2022-10-16T07:09:14;5.68;;;1.40;;
41693;SDS011;27377;50.666;9.150;2022-10-16T07:11:40;2.33;;;1.23;;
41693;SDS011;27377;50.666;9.150;2022-10-16T07:14:12;2.03;;;1.13;;
41693;SDS011;27377;50.666;9.150;2022-10-16T07:16:43;3.27;;;1.27;;
41693;SDS011;27377;50.666;9.150;2022-10-16T07:19:08;3.63;;;1.23;;
41693;SDS011;27377;50.666;9.150;2022-10-16T07:21:36;2.70;;;1.30;;
41693;SDS011;27377;50.666;9.150;2022-10-16T07:24:03;2.58;;;1.40;;
41693;SDS011;27377;50.666;9.150;2022-10-16T07:26:30;2.63;;;1.20;;
41693;SDS011;27377;50.666;9.150;2022-10-16T07:28:58;2.00;;;1.30;;
41693;SDS011;27377;50.666;9.150;2022-10-16T07:31:24;4.13;;;1.40;;
41693;SDS011;27377;50.666;9.150;2022-10-16T07:33:50;3.45;;;1.30;;
41693;SDS011;27377;50.666;9.150;2022-10-16T07:36:17;2.10;;;1.20;;
41693;SDS011;27377;50.666;9.150;2022-10-16T07:38:45;2.33;;;1.17;;
41693;SDS011;27377;50.666;9.150;2022-10-16T07:41:13;2.40;;;1.20;;
41693;SDS011;27377;50.666;9.150;2022-10-16T07:43:40;2.35;;;1.30;;
41693;SDS011;27377;50.666;9.150;2022-10-16T07:46:14;3.60;;;1.20;;
41693;SDS011;27377;50.666;9.150;2022-10-16T07:48:41;3.38;;;1.20;;
41693;SDS011;27377;50.666;9.150;2022-10-16T07:51:10;1.67;;;0.90;;
41693;SDS011;27377;50.666;9.150;2022-10-16T07:53:36;2.67;;;1.00;;
41693;SDS011;27377;50.666;9.150;2022-10-16T07:56:03;1.75;;;0.90;;
41693;SDS011;27377;50.666;9.150;2022-10-16T07:58:30;4.03;;;1.20;;
41693;SDS011;27377;50.666;9.150;2022-10-16T08:00:57;4.13;;;1.05;;
41693;SDS011;27377;50.666;9.150;2022-10-16T08:03:23;2.60;;;1.10;;
41693;SDS011;27377;50.666;9.150;2022-10-16T08:05:49;2.10;;;1.20;;
41693;SDS011;27377;50.666;9.150;2022-10-16T08:08:16;1.80;;;1.10;;
41693;SDS011;27377;50.666;9.150;2022-10-16T08:10:42;3.20;;;1.10;;
41693;SDS011;27377;50.666;9.150;2022-10-16T08:13:08;2.40;;;1.20;;
41693;SDS011;27377;50.666;9.150;2022-10-16T08:15:34;2.13;;;1.23;;
41693;SDS011;27377;50.666;9.150;2022-10-16T08:18:01;2.50;;;1.47;;
41693;SDS011;27377;50.666;9.150;2022-10-16T08:20:28;3.67;;;1.50;;
41693;SDS011;27377;50.666;9.150;2022-10-16T08:22:55;6.03;;;1.35;;
41693;SDS011;27377;50.666;9.150;2022-10-16T08:25:23;2.70;;;1.30;;
41693;SDS011;27377;50.666;9.150;2022-10-16T08:27:50;2.20;;;1.27;;
41693;SDS011;27377;50.666;9.150;2022-10-16T08:30:19;2.88;;;1.30;;
41693;SDS011;27377;50.666;9.150;2022-10-16T08:32:45;3.00;;;1.33;;
41693;SDS011;27377;50.666;9.150;2022-10-16T08:35:12;4.30;;;1.50;;
41693;SDS011;27377;50.666;9.150;2022-10-16T08:37:38;2.72;;;1.23;;
41693;SDS011;27377;50.666;9.150;2022-10-16T08:40:07;2.83;;;1.30;;
41693;SDS011;27377;50.666;9.150;2022-10-16T08:43:01;3.28;;;1.30;;
41693;SDS011;27377;50.666;9.150;2022-10-16T08:50:40;3.60;;;1.40;;
41693;SDS011;27377;50.666;9.150;2022-10-16T08:53:06;3.30;;;1.60;;
41693;SDS011;27377;50.666;9.150;2022-10-16T08:55:42;4.68;;;1.90;;
41693;SDS011;27377;50.666;9.150;2022-10-16T08:58:23;4.10;;;1.90;;
41693;SDS011;27377;50.666;9.150;2022-10-16T09:00:54;4.87;;;1.80;;
41693;SDS011;27377;50.666;9.150;2022-10-16T09:03:24;5.32;;;2.10;;
41693;SDS011;27377;50.666;9.150;2022-10-16T09:08:42;3.33;;;1.98;;
41693;SDS011;27377;50.666;9.150;2022-10-16T09:16:46;3.67;;;2.00;;
41693;SDS011;27377;50.666;9.150;2022-10-16T09:19:20;4.00;;;2.15;;
41693;SDS011;27377;50.666;9.150;2022-10-16T09:21:55;4.13;;;2.20;;
41693;SDS011;27377;50.666;9.150;2022-10-16T09:24:21;3.28;;;2.08;;
41693;SDS011;27377;50.666;9.150;2022-10-16T09:26:50;4.72;;;2.20;;
41693;SDS011;27377;50.666;9.150;2022-10-16T09:29:16;3.40;;;2.23;;
41693;SDS011;27377;50.666;9.150;2022-10-16T09:31:50;5.00;;;2.40;;
41693;SDS011;27377;50.666;9.150;2022-10-16T09:36:54;3.13;;;2.20;;
41693;SDS011;27377;50.666;9.150;2022-10-16T09:39:22;4.47;;;2.20;;
41693;SDS011;27377;50.666;9.150;2022-10-16T09:41:47;4.30;;;2.87;;
41693;SDS011;27377;50.666;9.150;2022-10-16T09:44:23;4.03;;;3.15;;
41693;SDS011;27377;50.666;9.150;2022-10-16T09:47:04;5.90;;;3.20;;
41693;SDS011;27377;50.666;9.150;2022-10-16T09:49:55;5.55;;;3.08;;
41693;SDS011;27377;50.666;9.150;2022-10-16T09:52:30;4.03;;;2.75;;
41693;SDS011;27377;50.666;9.150;2022-10-16T09:54:57;5.60;;;3.10;;
41693;SDS011;27377;50.666;9.150;2022-10-16T09:57:25;4.97;;;3.15;;
41693;SDS011;27377;50.666;9.150;2022-10-16T09:59:55;4.72;;;3.10;;
41693;SDS011;27377;50.666;9.150;2022-10-16T10:02:29;4.68;;;2.90;;
41693;SDS011;27377;50.666;9.150;2022-10-16T10:04:58;5.13;;;2.88;;
41693;SDS011;27377;50.666;9.150;2022-10-16T10:07:25;6.35;;;2.63;;
41693;SDS011;27377;50.666;9.150;2022-10-16T10:09:52;6.13;;;2.50;;
41693;SDS011;27377;50.666;9.150;2022-10-16T10:14:47;3.77;;;2.33;;
41693;SDS011;27377;50.666;9.150;2022-10-16T10:17:23;4.03;;;2.40;;
41693;SDS011;27377;50.666;9.150;2022-10-16T10:22:22;3.58;;;2.00;;
41693;SDS011;27377;50.666;9.150;2022-10-16T10:24:54;3.45;;;1.50;;
41693;SDS011;27377;50.666;9.150;2022-10-16T10:27:21;3.15;;;1.40;;
41693;SDS011;27377;50.666;9.150;2022-10-16T10:30:01;2.97;;;1.70;;
41693;SDS011;27377;50.666;9.150;2022-10-16T10:35:44;3.47;;;1.70;;
41693;SDS011;27377;50.666;9.150;2022-10-16T10:46:58;2.70;;;1.20;;
41693;SDS011;27377;50.666;9.150;2022-10-16T11:06:32;3.70;;;1.50;;
41693;SDS011;27377;50.666;9.150;2022-10-16T11:11:40;6.50;;;1.77;;
41693;SDS011;27377;50.666;9.150;2022-10-16T11:14:19;4.90;;;1.60;;
41693;SDS011;27377;50.666;9.150;2022-10-16T11:17:00;3.60;;;1.60;;
41693;SDS011;27377;50.666;9.150;2022-10-16T11:25:41;4.07;;;1.95;;
41693;SDS011;27377;50.666;9.150;2022-10-16T11:30:29;3.17;;;1.70;;
41693;SDS011;27377;50.666;9.150;2022-10-16T11:33:03;3.50;;;1.70;;
41693;SDS011;27377;50.666;9.150;2022-10-16T11:35:42;2.75;;;1.70;;
41693;SDS011;27377;50.666;9.150;2022-10-16T11:39:00;3.75;;;1.75;;
41693;SDS011;27377;50.666;9.150;2022-10-16T11:43:52;3.45;;;1.80;;
41693;SDS011;27377;50.666;9.150;2022-10-16T11:46:46;4.25;;;1.88;;
41693;SDS011;27377;50.666;9.150;2022-10-16T11:49:18;2.90;;;1.80;;
41693;SDS011;27377;50.666;9.150;2022-10-16T11:54:18;4.20;;;1.80;;
41693;SDS011;27377;50.666;9.150;2022-10-16T11:56:59;2.80;;;1.70;;
41693;SDS011;27377;50.666;9.150;2022-10-16T12:04:55;5.57;;;1.90;;
41693;SDS011;27377;50.666;9.150;2022-10-16T12:07:41;6.20;;;2.20;;
41693;SDS011;27377;50.666;9.150;2022-10-16T12:10:32;4.38;;;2.10;;
41693;SDS011;27377;50.666;9.150;2022-10-16T12:13:02;3.25;;;2.10;;
41693;SDS011;27377;50.666;9.150;2022-10-16T12:15:30;5.32;;;2.35;;
41693;SDS011;27377;50.666;9.150;2022-10-16T12:17:58;5.60;;;2.15;;
41693;SDS011;27377;50.666;9.150;2022-10-16T12:20:26;4.68;;;2.25;;
41693;SDS011;27377;50.666;9.150;2022-10-16T12:22:56;6.82;;;2.40;;
41693;SDS011;27377;50.666;9.150;2022-10-16T12:25:32;3.58;;;2.40;;
41693;SDS011;27377;50.666;9.150;2022-10-16T12:30:36;6.65;;;2.20;;
41693;SDS011;27377;50.666;9.150;2022-10-16T12:33:05;3.45;;;1.75;;
41693;SDS011;27377;50.666;9.150;2022-10-16T12:35:45;4.25;;;1.90;;
41693;SDS011;27377;50.666;9.150;2022-10-16T12:38:18;3.95;;;1.77;;
41693;SDS011;27377;50.666;9.150;2022-10-16T12:40:46;5.45;;;1.88;;
41693;SDS011;27377;50.666;9.150;2022-10-16T12:43:25;5.07;;;1.80;;
41693;SDS011;27377;50.666;9.150;2022-10-16T12:46:35;4.22;;;1.83;;
41693;SDS011;27377;50.666;9.150;2022-10-16T12:48:49;2.35;;;1.63;;
41693;SDS011;27377;50.666;9.150;2022-10-16T12:54:03;3.17;;;1.70;;
41693;SDS011;27377;50.666;9.150;2022-10-16T12:56:41;3.88;;;1.70;;
41693;SDS011;27377;50.666;9.150;2022-10-16T13:02:20;2.78;;;1.90;;
41693;SDS011;27377;50.666;9.150;2022-10-16T13:07:48;2.85;;;1.73;;
41693;SDS011;27377;50.666;9.150;2022-10-16T13:16:52;3.03;;;1.70;;
41693;SDS011;27377;50.666;9.150;2022-10-16T13:19:38;3.47;;;1.70;;
41693;SDS011;27377;50.666;9.150;2022-10-16T13:27:46;4.00;;;2.00;;
41693;SDS011;27377;50.666;9.150;2022-10-16T13:30:17;3.30;;;2.10;;
41693;SDS011;27377;50.666;9.150;2022-10-16T13:32:46;4.82;;;2.20;;
41693;SDS011;27377;50.666;9.150;2022-10-16T13:35:24;3.63;;;2.10;;
41693;SDS011;27377;50.666;9.150;2022-10-16T13:38:03;2.83;;;2.00;;
41693;SDS011;27377;50.666;9.150;2022-10-16T13:40:47;2.87;;;2.00;;
41693;SDS011;27377;50.666;9.150;2022-10-16T13:43:19;3.70;;;1.93;;
41693;SDS011;27377;50.666;9.150;2022-10-16T13:45:58;3.92;;;2.25;;
41693;SDS011;27377;50.666;9.150;2022-10-16T13:48:26;2.97;;;2.22;;
41693;SDS011;27377;50.666;9.150;2022-10-16T13:51:05;4.57;;;2.50;;
41693;SDS011;27377;50.666;9.150;2022-10-16T13:53:36;3.97;;;2.47;;
41693;SDS011;27377;50.666;9.150;2022-10-16T13:56:06;3.63;;;2.43;;
41693;SDS011;27377;50.666;9.150;2022-10-16T13:58:35;4.18;;;2.60;;
41693;SDS011;27377;50.666;9.150;2022-10-16T14:01:02;3.70;;;2.80;;
41693;SDS011;27377;50.666;9.150;2022-10-16T14:03:30;4.07;;;2.63;;
41693;SDS011;27377;50.666;9.150;2022-10-16T14:06:00;5.18;;;2.80;;
41693;SDS011;27377;50.666;9.150;2022-10-16T14:08:28;4.15;;;2.45;;
41693;SDS011;27377;50.666;9.150;2022-10-16T14:10:55;4.65;;;2.60;;
41693;SDS011;27377;50.666;9.150;2022-10-16T14:13:29;4.32;;;2.53;;
41693;SDS011;27377;50.666;9.150;2022-10-16T14:16:07;5.60;;;3.00;;
41693;SDS011;27377;50.666;9.150;2022-10-16T14:18:44;4.90;;;2.90;;
41693;SDS011;27377;50.666;9.150;2022-10-16T14:21:14;4.03;;;2.80;;
41693;SDS011;27377;50.666;9.150;2022-10-16T14:23:41;5.43;;;2.70;;
41693;SDS011;27377;50.666;9.150;2022-10-16T14:28:38;4.93;;;3.03;;
41693;SDS011;27377;50.666;9.150;2022-10-16T14:31:41;3.85;;;2.67;;
41693;SDS011;27377;50.666;9.150;2022-10-16T14:34:01;4.13;;;2.90;;
41693;SDS011;27377;50.666;9.150;2022-10-16T14:36:27;4.53;;;3.10;;
41693;SDS011;27377;50.666;9.150;2022-10-16T14:39:01;4.13;;;2.80;;
41693;SDS011;27377;50.666;9.150;2022-10-16T14:41:27;4.78;;;3.10;;
41693;SDS011;27377;50.666;9.150;2022-10-16T14:43:56;11.02;;;3.75;;
41693;SDS011;27377;50.666;9.150;2022-10-16T14:46:33;5.65;;;3.80;;
41693;SDS011;27377;50.666;9.150;2022-10-16T14:51:36;5.05;;;3.60;;
41693;SDS011;27377;50.666;9.150;2022-10-16T14:54:03;4.43;;;3.53;;
41693;SDS011;27377;50.666;9.150;2022-10-16T14:56:30;5.07;;;3.85;;
41693;SDS011;27377;50.666;9.150;2022-10-16T14:58:59;5.40;;;3.90;;
41693;SDS011;27377;50.666;9.150;2022-10-16T15:01:25;5.95;;;3.45;;
41693;SDS011;27377;50.666;9.150;2022-10-16T15:03:51;6.73;;;3.40;;
41693;SDS011;27377;50.666;9.150;2022-10-16T15:06:20;5.47;;;3.58;;
41693;SDS011;27377;50.666;9.150;2022-10-16T15:08:46;4.90;;;3.10;;
41693;SDS011;27377;50.666;9.150;2022-10-16T15:11:16;4.90;;;2.90;;
41693;SDS011;27377;50.666;9.150;2022-10-16T15:13:43;4.65;;;2.80;;
41693;SDS011;27377;50.666;9.150;2022-10-16T15:16:13;4.77;;;2.80;;
41693;SDS011;27377;50.666;9.150;2022-10-16T15:18:41;4.47;;;2.80;;
41693;SDS011;27377;50.666;9.150;2022-10-16T15:21:07;5.50;;;2.80;;
41693;SDS011;27377;50.666;9.150;2022-10-16T15:23:36;4.20;;;2.70;;
41693;SDS011;27377;50.666;9.150;2022-10-16T15:26:03;4.20;;;2.63;;
41693;SDS011;27377;50.666;9.150;2022-10-16T15:28:29;2.97;;;2.33;;
41693;SDS011;27377;50.666;9.150;2022-10-16T15:30:56;3.50;;;2.50;;
41693;SDS011;27377;50.666;9.150;2022-10-16T15:33:26;3.10;;;2.40;;
41693;SDS011;27377;50.666;9.150;2022-10-16T15:35:54;3.93;;;2.60;;
41693;SDS011;27377;50.666;9.150;2022-10-16T15:38:20;3.47;;;2.60;;
41693;SDS011;27377;50.666;9.150;2022-10-16T15:40:47;3.10;;;2.33;;
41693;SDS011;27377;50.666;9.150;2022-10-16T15:43:14;4.68;;;2.55;;
41693;SDS011;27377;50.666;9.150;2022-10-16T15:45:40;4.97;;;2.60;;
41693;SDS011;27377;50.666;9.150;2022-10-16T15:48:06;4.85;;;2.38;;
41693;SDS011;27377;50.666;9.150;2022-10-16T15:50:35;5.40;;;2.28;;
41693;SDS011;27377;50.666;9.150;2022-10-16T15:53:02;3.53;;;2.35;;
41693;SDS011;27377;50.666;9.150;2022-10-16T15:55:28;3.47;;;2.20;;
41693;SDS011;27377;50.666;9.150;2022-10-16T15:57:53;2.97;;;2.10;;
41693;SDS011;27377;50.666;9.150;2022-10-16T16:00:19;3.73;;;2.10;;
41693;SDS011;27377;50.666;9.150;2022-10-16T16:02:51;4.60;;;2.30;;
41693;SDS011;27377;50.666;9.150;2022-10-16T16:05:18;3.70;;;2.20;;
41693;SDS011;27377;50.666;9.150;2022-10-16T16:07:44;3.90;;;2.27;;
41693;SDS011;27377;50.666;9.150;2022-10-16T16:10:10;3.23;;;2.20;;
41693;SDS011;27377;50.666;9.150;2022-10-16T16:12:36;3.85;;;2.10;;
41693;SDS011;27377;50.666;9.150;2022-10-16T16:15:03;4.05;;;2.03;;
41693;SDS011;27377;50.666;9.150;2022-10-16T16:17:31;3.50;;;2.10;;
41693;SDS011;27377;50.666;9.150;2022-10-16T16:19:57;4.80;;;2.08;;
41693;SDS011;27377;50.666;9.150;2022-10-16T16:22:22;3.80;;;2.10;;
41693;SDS011;27377;50.666;9.150;2022-10-16T16:24:48;5.88;;;1.95;;
41693;SDS011;27377;50.666;9.150;2022-10-16T16:27:13;3.67;;;1.85;;
41693;SDS011;27377;50.666;9.150;2022-10-16T16:29:39;6.10;;;1.90;;
41693;SDS011;27377;50.666;9.150;2022-10-16T16:32:05;4.25;;;1.80;;
41693;SDS011;27377;50.666;9.150;2022-10-16T16:34:30;4.17;;;1.80;;
41693;SDS011;27377;50.666;9.150;2022-10-16T16:36:56;3.50;;;1.90;;
41693;SDS011;27377;50.666;9.150;2022-10-16T16:39:22;3.33;;;1.98;;
41693;SDS011;27377;50.666;9.150;2022-10-16T16:41:48;5.03;;;1.80;;
41693;SDS011;27377;50.666;9.150;2022-10-16T16:44:14;3.95;;;1.80;;
41693;SDS011;27377;50.666;9.150;2022-10-16T16:46:41;7.20;;;1.83;;
41693;SDS011;27377;50.666;9.150;2022-10-16T16:49:09;4.45;;;1.80;;